WMKM METAR and TAF | Updated Today

WMKM METAR

Malacca Airport

Observation time: 48 min. ago

WMKM 292000Z VRB02KT 9000 FEW028 26/24 Q1008

Need help? Read our tutorial on how to read METARs or read the parsed version below.

Malacca Airport (WMKM) METAR

  • Weather conditions on Thu, 29 Sep 2022 20:00:00 +0000 (48 min. ago):
  • Present conditions: Dry
  • Clouds: A few at 853 meters
  • Visibility: 9000 meters
  • Wind: Variable at 2 knots
  • Temperature: 26 celsius
  • Dew point: 24 celsius
  • Pressure: 1008 millibars
  • Remarks: None


Useful to know...

WMKM TAF

Malacca Airport

TAF WMKM 291700Z 2918/3018 VRB02KT 9999 FEW025 PROB30 TEMPO 2920/2924 4000 TSRA FEW017CB
Observation time: 3:48 hr. ago
Need help? Read our tutorial on how to read TAFs or read the parsed version below.

Parsed version of TAF for Malacca Airport (WMKM)

  • From 29 September at 18:00 UTC, to day 30 of the month at 18:00 UTC
  • Clouds: A few at 762 meters
  • Visibility: Greater than 10 km
  • Wind: Variable at 2
  • Expected to arise temporarily, from 29 September at 20:00 UTC, to day 29 of the month at 24:00 UTC
    Probability of 30%
  • Clouds: A few at 518 meters, cumulonimbus
  • Visibility: 4000 meters
  • Other: Thunderstorms rain